createdAt,value
2022-08-11T00:01:23.515Z,95.25
2022-08-11T00:03:56.226Z,95.57
2022-08-11T00:06:45.112Z,96.02
2022-08-11T00:09:18.560Z,95.78
2022-08-11T00:11:54.098Z,96.12
2022-08-11T00:14:37.486Z,96.34
2022-08-11T00:17:08.166Z,97.05
2022-08-11T00:20:11.643Z,96.14
2022-08-11T00:22:27.594Z,96.32
2022-08-11T00:24:59.957Z,95.75
2022-08-11T00:27:37.650Z,95.49
2022-08-11T00:30:06.249Z,96.08
2022-08-11T00:32:34.735Z,95.88
2022-08-11T00:35:56.158Z,95.74
2022-08-11T00:37:54.766Z,95.97
2022-08-11T00:41:04.679Z,95.17
2022-08-11T00:43:50.057Z,95.36
2022-08-11T00:46:34.895Z,95.18
2022-08-11T00:49:50.460Z,95.21
2022-08-11T00:52:44.809Z,93.88
2022-08-11T00:55:55.748Z,93.78
2022-08-11T00:59:00.523Z,94.16
2022-08-11T01:01:28.291Z,94.10
2022-08-11T01:04:24.784Z,92.97
2022-08-11T01:08:01.002Z,93.76
2022-08-11T01:10:33.713Z,92.94
2022-08-11T01:13:29.246Z,93.62
2022-08-11T01:16:11.815Z,93.22
2022-08-11T01:18:47.628Z,92.73
2022-08-11T01:21:26.198Z,93.03
2022-08-11T01:24:42.166Z,93.21
2022-08-11T01:27:47.002Z,92.08
2022-08-11T01:30:32.619Z,91.30
2022-08-11T01:33:39.511Z,91.88
2022-08-11T01:36:43.988Z,91.60
2022-08-11T01:39:20.015Z,92.67
2022-08-11T01:42:35.574Z,92.69
2022-08-11T01:45:30.053Z,92.97
2022-08-11T01:48:04.543Z,92.78
2022-08-11T01:50:31.458Z,93.37
2022-08-11T01:53:01.117Z,93.09
2022-08-11T01:55:38.486Z,93.63
2022-08-11T01:58:05.467Z,94.40
2022-08-11T02:00:46.583Z,93.77
2022-08-11T02:03:24.684Z,94.25
2022-08-11T02:06:24.743Z,94.88
2022-08-11T02:09:23.671Z,94.79
2022-08-11T02:11:56.570Z,95.63
2022-08-11T02:14:31.826Z,95.79
2022-08-11T02:17:19.187Z,96.80
2022-08-11T02:20:18.735Z,96.53
2022-08-11T02:24:06.817Z,96.29
2022-08-11T02:27:10.076Z,97.68
2022-08-11T02:29:53.187Z,97.85
2022-08-11T02:32:44.746Z,98.19
2022-08-11T02:35:20.642Z,98.28
2022-08-11T02:38:09.190Z,98.47
2022-08-11T02:40:41.814Z,98.91
2022-08-11T02:43:38.904Z,98.81
2022-08-11T02:46:20.180Z,99.60
2022-08-11T02:49:24.103Z,99.49
2022-08-11T02:52:09.866Z,99.95
2022-08-11T02:55:03.696Z,99.90
2022-08-11T02:57:49.964Z,100.00
2022-08-11T03:00:20.657Z,100.00
2022-08-11T03:03:17.373Z,100.00
2022-08-11T03:05:53.770Z,100.00
2022-08-11T03:08:29.581Z,100.00
2022-08-11T03:11:30.938Z,100.00
2022-08-11T03:14:35.059Z,100.00
2022-08-11T03:17:22.071Z,100.00
2022-08-11T03:20:21.760Z,100.00
2022-08-11T03:23:02.707Z,100.00
2022-08-11T03:25:46.609Z,100.00
2022-08-11T03:28:38.351Z,100.00
2022-08-11T03:31:32.633Z,100.00
2022-08-11T03:34:07.263Z,100.00
2022-08-11T03:37:16.805Z,100.00
2022-08-11T03:40:11.469Z,100.00
2022-08-11T03:42:41.362Z,100.00
2022-08-11T03:45:47.798Z,100.00
2022-08-11T03:48:29.690Z,100.00
2022-08-11T03:51:08.300Z,100.00
2022-08-11T03:54:11.070Z,100.00
2022-08-11T03:56:55.694Z,100.00
2022-08-11T03:59:47.210Z,100.00
2022-08-11T04:02:39.502Z,100.00
2022-08-11T04:05:27.485Z,100.00
2022-08-11T04:08:09.797Z,100.00
2022-08-11T04:11:01.013Z,100.00
2022-08-11T04:14:31.009Z,100.00
2022-08-11T04:17:42.859Z,100.00
2022-08-11T04:20:57.630Z,100.00
2022-08-11T04:24:36.439Z,100.00
2022-08-11T04:27:14.414Z,100.00
2022-08-11T04:30:02.131Z,100.00
2022-08-11T04:33:07.193Z,100.00
2022-08-11T04:35:55.972Z,100.00
2022-08-11T04:39:00.331Z,100.00
2022-08-11T04:42:31.413Z,100.00
2022-08-11T04:45:22.659Z,100.00
2022-08-11T04:48:42.291Z,100.00
2022-08-11T04:51:42.704Z,100.00
2022-08-11T04:55:02.032Z,100.00
2022-08-11T04:58:05.907Z,100.00
2022-08-11T05:01:08.967Z,100.00
2022-08-11T05:04:03.918Z,100.00
2022-08-11T05:06:33.799Z,100.00
2022-08-11T05:09:28.684Z,99.16
2022-08-11T05:12:20.395Z,99.00
2022-08-11T05:15:12.404Z,97.37
2022-08-11T05:18:27.684Z,96.87
2022-08-11T05:21:15.600Z,95.73
2022-08-11T05:24:07.799Z,94.84
2022-08-11T05:27:09.975Z,93.72
2022-08-11T05:30:15.364Z,92.86
2022-08-11T05:33:03.752Z,91.74
2022-08-11T05:36:01.462Z,90.70
2022-08-11T05:38:53.581Z,90.01
2022-08-11T05:41:45.827Z,89.68
2022-08-11T05:44:39.172Z,89.41
2022-08-11T05:47:25.958Z,88.68
2022-08-11T05:50:13.650Z,87.27
2022-08-11T05:53:04.559Z,86.28
2022-08-11T05:56:02.221Z,86.57
2022-08-11T05:58:43.091Z,85.11
2022-08-11T06:01:21.604Z,84.24
2022-08-11T06:04:10.640Z,83.32
2022-08-11T06:06:45.332Z,81.73
2022-08-11T06:09:14.732Z,80.93
2022-08-11T06:11:44.941Z,80.49
2022-08-11T06:14:15.692Z,80.71
2022-08-11T06:16:43.714Z,79.67
2022-08-11T06:19:11.532Z,78.11
2022-08-11T06:21:44.246Z,77.31
2022-08-11T06:24:13.415Z,75.65
2022-08-11T06:27:11.136Z,75.25
2022-08-11T06:29:47.827Z,73.80
2022-08-11T06:32:16.186Z,72.80
2022-08-11T06:35:20.397Z,71.23
2022-08-11T06:37:59.113Z,71.52
2022-08-11T06:40:35.181Z,70.79
2022-08-11T06:43:05.489Z,69.72
2022-08-11T06:45:48.879Z,69.98
2022-08-11T06:48:23.295Z,69.62
2022-08-11T06:51:12.078Z,68.39
2022-08-11T06:54:04.394Z,67.27
2022-08-11T06:57:28.945Z,65.05
2022-08-11T07:00:12.760Z,64.40
2022-08-11T07:02:52.020Z,64.60
2022-08-11T07:05:29.310Z,62.81
2022-08-11T07:08:36.077Z,63.18
2022-08-11T07:16:12.425Z,62.49
2022-08-11T07:18:41.928Z,61.51
2022-08-11T07:22:01.002Z,62.73
2022-08-11T07:25:01.482Z,61.13
2022-08-11T07:28:04.638Z,61.22
2022-08-11T07:30:34.704Z,61.00
2022-08-11T07:33:03.729Z,61.02
2022-08-11T07:35:39.934Z,61.45
2022-08-11T07:38:12.850Z,60.33
2022-08-11T07:40:44.109Z,60.46
2022-08-11T07:43:13.351Z,59.04
2022-08-11T07:46:06.571Z,59.48
2022-08-11T07:48:53.642Z,57.87
2022-08-11T07:51:39.776Z,59.18
2022-08-11T07:54:16.558Z,58.29
2022-08-11T07:56:54.688Z,57.87
2022-08-11T08:00:00.586Z,55.65
2022-08-11T08:02:59.450Z,53.87
2022-08-11T08:05:45.431Z,51.68
2022-08-11T08:08:34.524Z,52.71
2022-08-11T08:11:25.935Z,53.27
2022-08-11T08:14:14.192Z,52.88
2022-08-11T08:17:00.771Z,49.76
2022-08-11T08:19:28.535Z,51.58
2022-08-11T08:22:10.899Z,50.39
2022-08-11T08:24:44.050Z,48.60
2022-08-11T08:27:13.931Z,48.57
2022-08-11T08:30:00.957Z,48.54
2022-08-11T08:32:28.659Z,47.88
2022-08-11T08:34:58.797Z,47.76
2022-08-11T08:37:45.549Z,48.43
2022-08-11T08:40:14.291Z,46.22
2022-08-11T08:43:02.800Z,46.71
2022-08-11T08:45:34.386Z,45.73
2022-08-11T08:48:26.156Z,45.23
2022-08-11T08:51:18.091Z,44.87
2022-08-11T08:53:53.616Z,45.11
2022-08-11T08:56:28.595Z,45.24
2022-08-11T08:59:00.532Z,45.08
2022-08-11T09:01:33.607Z,44.92
2022-08-11T09:04:04.878Z,43.65
2022-08-11T09:06:36.024Z,44.17
2022-08-11T09:09:03.191Z,43.77
2022-08-11T09:11:48.575Z,44.17
2022-08-11T09:14:16.856Z,44.43
2022-08-11T09:16:44.657Z,44.86
2022-08-11T09:19:14.520Z,44.75
2022-08-11T09:21:48.237Z,44.22
2022-08-11T09:24:36.762Z,44.43
2022-08-11T09:27:08.714Z,43.45
2022-08-11T09:29:38.172Z,43.74
2022-08-11T09:32:08.519Z,43.85
2022-08-11T09:34:37.431Z,43.60
2022-08-11T09:37:54.806Z,42.78
2022-08-11T09:40:32.575Z,41.33
2022-08-11T09:43:22.267Z,42.58
2022-08-11T10:16:18.105Z,40.79
2022-08-11T10:18:53.684Z,40.70
2022-08-11T10:21:34.836Z,40.75
2022-08-11T10:24:22.254Z,39.80
2022-08-11T10:26:50.855Z,39.70
2022-08-11T10:29:44.259Z,40.33
2022-08-11T10:32:33.340Z,40.10
2022-08-11T10:35:14.497Z,39.46
2022-08-11T10:38:08.785Z,39.75
2022-08-11T10:40:32.870Z,39.68
2022-08-11T10:43:10.733Z,39.85
2022-08-11T10:45:58.685Z,38.83
2022-08-11T10:48:28.290Z,38.96
2022-08-11T10:51:15.017Z,39.08
2022-08-11T10:54:05.774Z,39.22
2022-08-11T10:56:57.148Z,37.92
2022-08-11T10:59:27.610Z,38.23
2022-08-11T11:01:55.595Z,39.64
2022-08-11T11:04:35.848Z,38.81
2022-08-11T11:07:24.245Z,37.69
2022-08-11T11:09:57.126Z,38.57
2022-08-11T11:12:49.764Z,38.26
2022-08-11T11:15:38.476Z,38.32
2022-08-11T11:18:11.549Z,38.76
2022-08-11T11:20:52.362Z,38.23
2022-08-11T11:23:21.849Z,37.82
2022-08-11T11:26:10.530Z,36.88
2022-08-11T11:28:37.694Z,36.45
2022-08-11T11:31:15.801Z,35.44
2022-08-11T11:34:20.354Z,36.12
2022-08-11T11:36:58.402Z,36.30
2022-08-11T11:39:32.425Z,37.53
2022-08-11T11:42:06.482Z,36.86
2022-08-11T11:44:35.522Z,36.59
2022-08-11T11:47:02.943Z,36.14
2022-08-11T11:49:32.594Z,35.73
2022-08-11T11:52:00.955Z,35.16
2022-08-11T11:54:31.566Z,36.09
2022-08-11T11:57:20.879Z,36.75
2022-08-11T12:00:09.668Z,34.92
2022-08-11T12:02:38.161Z,34.67
2022-08-11T12:05:06.303Z,35.35
2022-08-11T12:07:56.826Z,35.21
2022-08-11T12:11:15.368Z,35.65
2022-08-11T12:13:45.569Z,35.16
2022-08-11T12:16:35.751Z,34.75
2022-08-11T12:19:05.476Z,34.35
2022-08-11T12:21:34.595Z,35.20
2022-08-11T12:24:21.721Z,35.10
2022-08-11T12:27:14.848Z,34.58
2022-08-11T12:29:41.151Z,34.76
2022-08-11T12:32:11.673Z,35.40
2022-08-11T12:34:39.055Z,34.09
2022-08-11T12:37:13.068Z,34.33
2022-08-11T12:40:43.076Z,35.45
2022-08-11T12:43:22.308Z,34.81
2022-08-11T12:45:58.591Z,35.30
2022-08-11T12:49:00.477Z,36.15
2022-08-11T12:52:01.543Z,36.10
2022-08-11T12:54:59.027Z,36.07
2022-08-11T12:57:47.001Z,35.75
2022-08-11T13:00:33.432Z,35.09
2022-08-11T13:03:20.539Z,35.82
2022-08-11T13:05:49.912Z,35.76
2022-08-11T13:08:17.710Z,36.83
2022-08-11T13:11:04.800Z,36.83
2022-08-11T13:13:53.664Z,36.82
2022-08-11T13:16:22.805Z,36.66
2022-08-11T13:18:53.503Z,35.94
2022-08-11T13:21:23.139Z,36.40
2022-08-11T13:24:00.537Z,36.58
2022-08-11T13:26:49.560Z,36.92
2022-08-11T13:29:25.547Z,37.16
2022-08-11T13:31:54.798Z,37.94
2022-08-11T13:34:24.960Z,37.21
2022-08-11T13:36:54.385Z,37.19
2022-08-11T13:39:24.604Z,37.44
2022-08-11T13:41:53.677Z,37.64
2022-08-11T13:44:25.518Z,37.30
2022-08-11T13:46:57.544Z,38.26
2022-08-11T13:49:26.309Z,38.72
2022-08-11T13:51:55.379Z,38.46
2022-08-11T13:54:25.687Z,38.14
2022-08-11T13:56:57.091Z,38.79
2022-08-11T13:59:29.885Z,38.59
2022-08-11T14:02:28.482Z,37.62
2022-08-11T14:04:53.626Z,37.89
2022-08-11T14:07:24.883Z,38.01
2022-08-11T14:09:59.353Z,37.74
2022-08-11T14:12:54.056Z,38.03
2022-08-11T14:15:25.283Z,37.92
2022-08-11T14:17:57.380Z,38.04
2022-08-11T14:20:39.660Z,37.48
2022-08-11T14:23:13.867Z,37.60
2022-08-11T14:26:02.764Z,38.02
2022-08-11T14:28:40.011Z,38.28
2022-08-11T14:31:09.893Z,37.88
2022-08-11T14:34:00.377Z,37.89
2022-08-11T14:36:28.939Z,37.91
2022-08-11T14:38:56.821Z,37.54
2022-08-11T14:42:11.635Z,38.25
2022-08-11T14:44:53.199Z,38.56
2022-08-11T14:47:23.864Z,38.75
2022-08-11T14:50:09.885Z,38.45
2022-08-11T14:52:39.254Z,38.29
2022-08-11T14:55:27.504Z,38.44
2022-08-11T14:57:57.116Z,38.97
2022-08-11T15:00:25.117Z,38.82
2022-08-11T15:03:13.558Z,38.47
2022-08-11T15:05:56.688Z,38.63
2022-08-11T15:08:49.151Z,38.82
2022-08-11T15:11:47.382Z,38.81
2022-08-11T15:14:35.479Z,39.15
2022-08-11T15:17:09.312Z,39.33
2022-08-11T15:19:59.448Z,39.22
2022-08-11T15:22:45.125Z,39.09
2022-08-11T15:25:12.823Z,38.61
2022-08-11T15:27:59.466Z,38.80
2022-08-11T15:30:45.505Z,38.14
2022-08-11T15:33:35.580Z,38.78
2022-08-11T15:36:26.431Z,38.54
2022-08-11T15:39:03.162Z,38.39
2022-08-11T15:42:02.860Z,38.70
2022-08-11T15:45:02.639Z,39.14
2022-08-11T15:47:39.336Z,39.48
2022-08-11T15:50:15.488Z,39.28
2022-08-11T15:52:56.307Z,39.39
2022-08-11T15:55:25.317Z,39.16
2022-08-11T15:58:14.166Z,39.35
2022-08-11T16:01:08.607Z,39.90
2022-08-11T16:04:07.510Z,40.29
2022-08-11T16:06:49.526Z,40.59
2022-08-11T16:09:47.503Z,40.61
2022-08-11T16:12:34.914Z,41.00
2022-08-11T16:15:23.994Z,41.22
2022-08-11T16:17:54.410Z,41.52
2022-08-11T16:20:23.876Z,41.79
2022-08-11T16:23:00.399Z,41.77
2022-08-11T16:27:02.157Z,42.04
2022-08-11T16:28:22.171Z,42.61
2022-08-11T16:30:50.317Z,42.88
2022-08-11T16:33:48.504Z,42.94
2022-08-11T16:36:25.386Z,43.38
2022-08-11T16:38:54.560Z,43.16
2022-08-11T16:41:43.079Z,43.35
2022-08-11T16:44:37.329Z,43.64
2022-08-11T16:47:08.627Z,43.93
2022-08-11T16:49:38.686Z,44.25
2022-08-11T16:52:12.379Z,44.62
2022-08-11T16:54:44.388Z,44.66
2022-08-11T16:57:46.434Z,44.76
2022-08-11T17:00:16.590Z,100.00
2022-08-11T17:03:05.906Z,100.00
2022-08-11T17:06:00.705Z,100.00
2022-08-11T17:08:56.652Z,100.00
2022-08-11T17:11:49.665Z,100.00
2022-08-11T17:14:35.262Z,100.00
2022-08-11T17:17:07.478Z,100.00
2022-08-11T17:20:38.731Z,100.00
2022-08-11T17:22:47.256Z,100.00
2022-08-11T17:25:16.025Z,100.00
2022-08-11T17:27:44.400Z,100.00
2022-08-11T17:30:14.255Z,100.00
2022-08-11T17:33:07.103Z,100.00
2022-08-11T17:35:41.518Z,100.00
2022-08-11T17:38:12.690Z,100.00
2022-08-11T17:41:05.757Z,100.00
2022-08-11T17:43:52.822Z,100.00
2022-08-11T17:46:38.328Z,100.00
2022-08-11T17:49:07.884Z,100.00
2022-08-11T17:51:54.792Z,100.00
2022-08-11T17:54:41.746Z,100.00
2022-08-11T17:57:28.964Z,100.00
2022-08-11T17:59:58.001Z,100.00
2022-08-11T18:02:55.866Z,100.00
2022-08-11T18:05:26.566Z,100.00
2022-08-11T18:08:15.520Z,100.00
2022-08-11T18:11:02.717Z,100.00
2022-08-11T18:13:50.151Z,100.00
2022-08-11T18:16:37.584Z,100.00
2022-08-11T18:19:24.826Z,100.00
2022-08-11T18:22:16.164Z,100.00
2022-08-11T18:25:11.923Z,100.00
2022-08-11T18:28:02.114Z,100.00
2022-08-11T18:30:50.464Z,100.00
2022-08-11T18:34:05.983Z,100.00
2022-08-11T18:36:53.838Z,100.00
2022-08-11T18:39:42.524Z,100.00
2022-08-11T18:42:33.640Z,100.00
2022-08-11T18:45:22.898Z,100.00
2022-08-11T18:48:13.181Z,100.00
2022-08-11T18:51:31.042Z,100.00
2022-08-11T18:54:13.241Z,100.00
2022-08-11T18:57:01.302Z,100.00
2022-08-11T18:59:50.543Z,100.00
2022-08-11T19:02:49.554Z,100.00
2022-08-11T19:06:32.175Z,100.00
2022-08-11T19:08:50.361Z,100.00
2022-08-11T19:11:42.525Z,100.00
2022-08-11T19:14:31.498Z,100.00
2022-08-11T19:17:43.754Z,100.00
2022-08-11T19:20:32.432Z,100.00
2022-08-11T19:23:18.436Z,100.00
2022-08-11T19:26:05.679Z,100.00
2022-08-11T19:28:53.063Z,100.00
2022-08-11T19:31:44.424Z,100.00
2022-08-11T19:34:34.714Z,100.00
2022-08-11T19:37:24.622Z,100.00
2022-08-11T19:40:13.824Z,100.00
2022-08-11T19:43:02.465Z,100.00
2022-08-11T19:45:51.198Z,100.00
2022-08-11T19:48:40.817Z,100.00
2022-08-11T19:51:28.908Z,100.00
2022-08-11T19:54:14.972Z,100.00
2022-08-11T19:57:02.658Z,100.00
2022-08-11T19:59:49.309Z,100.00
2022-08-11T20:02:35.237Z,100.00
2022-08-11T20:05:20.973Z,100.00
2022-08-11T20:08:08.349Z,100.00
2022-08-11T20:10:55.776Z,100.00
2022-08-11T20:13:43.933Z,100.00
2022-08-11T20:16:32.805Z,100.00
2022-08-11T20:19:25.786Z,100.00
2022-08-11T20:22:26.307Z,100.00
2022-08-11T20:25:14.128Z,100.00
2022-08-11T20:28:00.891Z,100.00
2022-08-11T20:30:51.818Z,100.00
2022-08-11T20:33:39.485Z,100.00
2022-08-11T20:36:26.654Z,100.00
2022-08-11T20:39:14.400Z,100.00
2022-08-11T20:42:01.152Z,100.00
2022-08-11T20:44:48.656Z,100.00
2022-08-11T20:47:59.340Z,100.00
2022-08-11T20:50:45.651Z,100.00
2022-08-11T20:53:35.891Z,100.00
2022-08-11T20:56:28.510Z,100.00
2022-08-11T20:59:18.807Z,100.00
2022-08-11T21:02:10.095Z,100.00
2022-08-11T21:05:00.326Z,100.00
2022-08-11T21:07:56.741Z,100.00
2022-08-11T21:10:51.569Z,100.00
2022-08-11T21:13:41.430Z,100.00
2022-08-11T21:16:30.502Z,100.00
2022-08-11T21:19:54.689Z,100.00
2022-08-11T21:22:59.073Z,100.00
2022-08-11T21:26:02.038Z,100.00
2022-08-11T21:28:48.956Z,100.00
2022-08-11T21:31:35.063Z,100.00
2022-08-11T21:34:21.548Z,100.00
2022-08-11T21:37:09.015Z,100.00
2022-08-11T21:39:56.317Z,100.00
2022-08-11T21:42:43.409Z,100.00
2022-08-11T21:45:31.468Z,100.00
2022-08-11T21:48:18.120Z,100.00
2022-08-11T21:51:03.562Z,100.00
2022-08-11T21:53:50.703Z,100.00
2022-08-11T21:56:37.341Z,100.00
2022-08-11T21:59:24.201Z,100.00
2022-08-11T22:02:12.941Z,100.00
2022-08-11T22:05:00.450Z,100.00
2022-08-11T22:07:47.041Z,100.00
2022-08-11T22:10:42.548Z,100.00
2022-08-11T22:13:32.037Z,100.00
2022-08-11T22:16:20.954Z,100.00
2022-08-11T22:19:09.090Z,100.00
2022-08-11T22:22:03.025Z,100.00
2022-08-11T22:24:51.938Z,100.00
2022-08-11T22:27:38.553Z,100.00
2022-08-11T22:30:26.186Z,100.00
2022-08-11T22:33:12.591Z,100.00
2022-08-11T22:36:02.064Z,100.00
2022-08-11T22:38:49.765Z,100.00
2022-08-11T22:41:35.784Z,100.00
2022-08-11T22:44:22.056Z,100.00
2022-08-11T22:47:10.149Z,100.00
2022-08-11T22:49:58.981Z,100.00
2022-08-11T22:52:46.782Z,100.00
2022-08-11T22:55:33.715Z,100.00
2022-08-11T22:58:21.263Z,100.00
2022-08-11T23:01:08.155Z,100.00
2022-08-11T23:03:54.165Z,100.00
2022-08-11T23:06:40.892Z,100.00
2022-08-11T23:09:28.034Z,100.00
2022-08-11T23:12:13.116Z,100.00
2022-08-11T23:15:00.297Z,100.00
2022-08-11T23:17:47.251Z,100.00
2022-08-11T23:20:50.504Z,100.00
2022-08-11T23:23:40.554Z,100.00
2022-08-11T23:26:26.295Z,100.00
2022-08-11T23:29:15.341Z,100.00
2022-08-11T23:32:01.999Z,100.00
2022-08-11T23:35:03.484Z,100.00
2022-08-11T23:37:51.357Z,100.00
2022-08-11T23:40:36.962Z,100.00
2022-08-11T23:43:23.744Z,100.00
2022-08-11T23:46:09.262Z,100.00
2022-08-11T23:48:57.838Z,100.00
2022-08-11T23:51:45.707Z,100.00
2022-08-11T23:54:37.191Z,100.00
2022-08-11T23:57:23.842Z,100.00
